sensor_id;sensor_type;location;lat;lon;timestamp;pressure;altitude;pressure_sealevel;temperature;humidity
35694;BME280;21812;55.536;37.664;2022-07-17T00:00:42;99684.00;;;18.24;66.13
35694;BME280;21812;55.536;37.664;2022-07-17T00:03:16;99667.03;;;18.29;66.20
35694;BME280;21812;55.536;37.664;2022-07-17T00:05:43;99685.31;;;18.39;65.87
35694;BME280;21812;55.536;37.664;2022-07-17T00:08:09;99686.88;;;18.34;66.61
35694;BME280;21812;55.536;37.664;2022-07-17T00:10:38;99673.16;;;17.95;66.76
35694;BME280;21812;55.536;37.664;2022-07-17T00:13:04;99680.94;;;17.80;66.59
35694;BME280;21812;55.536;37.664;2022-07-17T00:15:30;99698.06;;;17.86;66.84
35694;BME280;21812;55.536;37.664;2022-07-17T00:17:56;99691.81;;;17.97;67.73
35694;BME280;21812;55.536;37.664;2022-07-17T00:20:22;99687.06;;;18.16;67.15
35694;BME280;21812;55.536;37.664;2022-07-17T00:22:51;99694.22;;;18.22;66.69
35694;BME280;21812;55.536;37.664;2022-07-17T00:25:17;99692.03;;;18.07;66.17
35694;BME280;21812;55.536;37.664;2022-07-17T00:27:43;99693.53;;;18.15;66.67
35694;BME280;21812;55.536;37.664;2022-07-17T00:30:09;99688.06;;;17.98;65.50
35694;BME280;21812;55.536;37.664;2022-07-17T00:32:35;99695.09;;;18.11;66.58
35694;BME280;21812;55.536;37.664;2022-07-17T00:35:01;99692.56;;;18.21;66.17
35694;BME280;21812;55.536;37.664;2022-07-17T00:37:29;99691.22;;;18.35;65.82
35694;BME280;21812;55.536;37.664;2022-07-17T00:39:54;99695.22;;;18.33;65.59
35694;BME280;21812;55.536;37.664;2022-07-17T00:42:20;99690.56;;;18.28;65.63
35694;BME280;21812;55.536;37.664;2022-07-17T00:44:46;99698.44;;;18.18;65.87
35694;BME280;21812;55.536;37.664;2022-07-17T00:47:14;99693.31;;;18.16;66.12
35694;BME280;21812;55.536;37.664;2022-07-17T00:49:40;99703.19;;;18.11;66.60
35694;BME280;21812;55.536;37.664;2022-07-17T00:52:07;99697.84;;;17.87;66.30
35694;BME280;21812;55.536;37.664;2022-07-17T00:54:41;99704.84;;;18.00;67.30
35694;BME280;21812;55.536;37.664;2022-07-17T00:57:09;99689.50;;;17.77;66.90
35694;BME280;21812;55.536;37.664;2022-07-17T00:59:35;99696.44;;;17.73;67.63
35694;BME280;21812;55.536;37.664;2022-07-17T01:02:06;99672.47;;;17.76;67.42
35694;BME280;21812;55.536;37.664;2022-07-17T01:04:36;99697.22;;;17.97;67.43
35694;BME280;21812;55.536;37.664;2022-07-17T01:07:03;99691.13;;;18.02;66.94
35694;BME280;21812;55.536;37.664;2022-07-17T01:09:29;99699.31;;;18.07;66.79
35694;BME280;21812;55.536;37.664;2022-07-17T01:11:55;99692.75;;;18.03;66.50
35694;BME280;21812;55.536;37.664;2022-07-17T01:14:25;99701.34;;;18.00;65.67
35694;BME280;21812;55.536;37.664;2022-07-17T01:16:52;99707.09;;;17.91;66.90
35694;BME280;21812;55.536;37.664;2022-07-17T01:19:18;99708.63;;;17.87;67.34
35694;BME280;21812;55.536;37.664;2022-07-17T01:21:46;99708.97;;;17.91;67.03
35694;BME280;21812;55.536;37.664;2022-07-17T01:24:12;99713.06;;;18.05;66.54
35694;BME280;21812;55.536;37.664;2022-07-17T01:26:42;99713.50;;;18.14;66.58
35694;BME280;21812;55.536;37.664;2022-07-17T01:29:12;99720.78;;;18.13;66.03
35694;BME280;21812;55.536;37.664;2022-07-17T01:31:39;99723.25;;;18.15;66.72
35694;BME280;21812;55.536;37.664;2022-07-17T01:34:06;99729.13;;;18.12;65.80
35694;BME280;21812;55.536;37.664;2022-07-17T01:36:33;99719.97;;;18.13;66.51
35694;BME280;21812;55.536;37.664;2022-07-17T01:38:59;99722.91;;;18.11;66.56
35694;BME280;21812;55.536;37.664;2022-07-17T01:41:25;99718.44;;;18.17;66.22
35694;BME280;21812;55.536;37.664;2022-07-17T01:43:50;99710.59;;;18.04;65.68
35694;BME280;21812;55.536;37.664;2022-07-17T01:46:16;99723.88;;;18.05;66.74
35694;BME280;21812;55.536;37.664;2022-07-17T01:48:42;99718.47;;;18.05;67.22
35694;BME280;21812;55.536;37.664;2022-07-17T01:51:08;99726.09;;;18.08;66.82
35694;BME280;21812;55.536;37.664;2022-07-17T01:53:33;99715.03;;;18.10;66.19
35694;BME280;21812;55.536;37.664;2022-07-17T01:55:59;99724.25;;;18.26;65.90
35694;BME280;21812;55.536;37.664;2022-07-17T01:58:25;99726.06;;;18.20;66.11
35694;BME280;21812;55.536;37.664;2022-07-17T02:00:51;99724.53;;;18.24;66.25
35694;BME280;21812;55.536;37.664;2022-07-17T02:03:19;99713.31;;;18.04;66.16
35694;BME280;21812;55.536;37.664;2022-07-17T02:05:46;99712.56;;;18.08;66.38
35694;BME280;21812;55.536;37.664;2022-07-17T02:08:11;99720.22;;;18.11;66.11
35694;BME280;21812;55.536;37.664;2022-07-17T02:10:39;99718.81;;;18.09;66.23
35694;BME280;21812;55.536;37.664;2022-07-17T02:13:05;99717.97;;;18.20;66.15
35694;BME280;21812;55.536;37.664;2022-07-17T02:15:50;99712.06;;;18.23;65.80
35694;BME280;21812;55.536;37.664;2022-07-17T02:18:16;99712.91;;;18.12;66.04
35694;BME280;21812;55.536;37.664;2022-07-17T02:20:42;99713.31;;;18.04;66.86
35694;BME280;21812;55.536;37.664;2022-07-17T02:23:12;99710.94;;;18.07;67.09
35694;BME280;21812;55.536;37.664;2022-07-17T02:25:37;99704.41;;;17.91;67.26
35694;BME280;21812;55.536;37.664;2022-07-17T02:28:05;99702.28;;;17.82;67.43
35694;BME280;21812;55.536;37.664;2022-07-17T02:30:31;99717.66;;;17.81;67.12
35694;BME280;21812;55.536;37.664;2022-07-17T02:32:56;99718.59;;;17.98;67.92
35694;BME280;21812;55.536;37.664;2022-07-17T02:35:22;99711.41;;;18.04;67.18
35694;BME280;21812;55.536;37.664;2022-07-17T02:37:48;99725.16;;;18.03;67.14
35694;BME280;21812;55.536;37.664;2022-07-17T02:40:13;99713.78;;;18.01;67.73
35694;BME280;21812;55.536;37.664;2022-07-17T02:42:39;99713.66;;;18.07;67.80
35694;BME280;21812;55.536;37.664;2022-07-17T02:45:06;99711.91;;;18.01;67.67
35694;BME280;21812;55.536;37.664;2022-07-17T02:47:34;99709.09;;;17.96;67.92
35694;BME280;21812;55.536;37.664;2022-07-17T02:50:00;99717.97;;;18.08;68.08
35694;BME280;21812;55.536;37.664;2022-07-17T02:52:30;99712.78;;;18.19;67.92
35694;BME280;21812;55.536;37.664;2022-07-17T02:54:55;99703.94;;;18.23;67.70
35694;BME280;21812;55.536;37.664;2022-07-17T02:57:21;99706.91;;;18.22;67.12
35694;BME280;21812;55.536;37.664;2022-07-17T02:59:47;99710.31;;;18.17;66.47
35694;BME280;21812;55.536;37.664;2022-07-17T03:02:14;99713.59;;;18.19;67.86
35694;BME280;21812;55.536;37.664;2022-07-17T03:04:39;99710.31;;;18.17;68.18
35694;BME280;21812;55.536;37.664;2022-07-17T03:07:05;99715.72;;;18.17;68.23
35694;BME280;21812;55.536;37.664;2022-07-17T03:09:31;99710.44;;;18.10;67.52
35694;BME280;21812;55.536;37.664;2022-07-17T03:11:57;99709.75;;;18.15;68.51
35694;BME280;21812;55.536;37.664;2022-07-17T03:14:22;99704.63;;;18.02;67.00
35694;BME280;21812;55.536;37.664;2022-07-17T03:16:48;99705.00;;;17.93;67.49
35694;BME280;21812;55.536;37.664;2022-07-17T03:19:14;99704.63;;;17.78;68.82
35694;BME280;21812;55.536;37.664;2022-07-17T03:21:39;99701.69;;;17.91;68.97
35694;BME280;21812;55.536;37.664;2022-07-17T03:24:05;99710.94;;;18.07;68.24
35694;BME280;21812;55.536;37.664;2022-07-17T03:26:31;99715.19;;;18.03;67.74
35694;BME280;21812;55.536;37.664;2022-07-17T03:28:56;99712.34;;;18.10;68.36
35694;BME280;21812;55.536;37.664;2022-07-17T03:31:22;99709.53;;;18.05;66.73
35694;BME280;21812;55.536;37.664;2022-07-17T03:33:48;99711.19;;;18.06;67.33
35694;BME280;21812;55.536;37.664;2022-07-17T03:36:14;99711.00;;;17.95;66.97
35694;BME280;21812;55.536;37.664;2022-07-17T03:38:40;99708.16;;;17.90;67.79
35694;BME280;21812;55.536;37.664;2022-07-17T03:41:05;99636.28;;;17.37;66.66
35694;BME280;21812;55.536;37.664;2022-07-17T03:43:31;99703.47;;;17.86;68.00
35694;BME280;21812;55.536;37.664;2022-07-17T03:45:57;99693.50;;;17.86;68.58
35694;BME280;21812;55.536;37.664;2022-07-17T03:48:22;99698.13;;;18.03;69.06
35694;BME280;21812;55.536;37.664;2022-07-17T03:50:48;99694.94;;;18.17;69.09
35694;BME280;21812;55.536;37.664;2022-07-17T03:53:14;99703.94;;;18.23;69.62
35694;BME280;21812;55.536;37.664;2022-07-17T03:55:39;99705.28;;;18.21;69.22
35694;BME280;21812;55.536;37.664;2022-07-17T03:58:05;99690.56;;;18.28;69.05
35694;BME280;21812;55.536;37.664;2022-07-17T04:00:31;99706.75;;;18.28;68.86
35694;BME280;21812;55.536;37.664;2022-07-17T04:03:04;99700.16;;;18.36;68.38
35694;BME280;21812;55.536;37.664;2022-07-17T04:05:29;99703.53;;;18.43;68.21
35694;BME280;21812;55.536;37.664;2022-07-17T04:07:57;99701.25;;;18.52;68.92
35694;BME280;21812;55.536;37.664;2022-07-17T04:10:23;99707.09;;;18.61;68.52
35694;BME280;21812;55.536;37.664;2022-07-17T04:12:49;99686.28;;;18.32;67.03
35694;BME280;21812;55.536;37.664;2022-07-17T04:15:15;99705.78;;;18.34;65.91
35694;BME280;21812;55.536;37.664;2022-07-17T04:18:00;99709.50;;;18.16;66.94
35694;BME280;21812;55.536;37.664;2022-07-17T04:20:26;99704.53;;;17.85;67.94
35694;BME280;21812;55.536;37.664;2022-07-17T04:22:51;99708.41;;;17.77;67.75
35694;BME280;21812;55.536;37.664;2022-07-17T04:25:17;99708.44;;;17.65;69.07
35694;BME280;21812;55.536;37.664;2022-07-17T04:27:43;99709.72;;;17.86;69.78
35694;BME280;21812;55.536;37.664;2022-07-17T04:30:09;99707.78;;;17.98;69.18
35694;BME280;21812;55.536;37.664;2022-07-17T04:32:37;99704.84;;;18.00;69.25
35694;BME280;21812;55.536;37.664;2022-07-17T04:35:02;99717.78;;;17.98;69.04
35694;BME280;21812;55.536;37.664;2022-07-17T04:37:28;99698.66;;;17.76;69.42
35694;BME280;21812;55.536;37.664;2022-07-17T04:39:54;99706.50;;;17.77;70.60
35694;BME280;21812;55.536;37.664;2022-07-17T04:42:22;99705.25;;;17.80;70.57
35694;BME280;21812;55.536;37.664;2022-07-17T04:44:50;99703.00;;;17.89;70.54
35694;BME280;21812;55.536;37.664;2022-07-17T04:47:15;99708.72;;;18.04;70.22
35694;BME280;21812;55.536;37.664;2022-07-17T04:49:41;99707.78;;;17.98;69.09
35694;BME280;21812;55.536;37.664;2022-07-17T04:52:07;99711.22;;;17.94;70.18
35694;BME280;21812;55.536;37.664;2022-07-17T04:54:32;99705.81;;;17.94;70.22
35694;BME280;21812;55.536;37.664;2022-07-17T04:57:00;99701.56;;;17.98;69.90
35694;BME280;21812;55.536;37.664;2022-07-17T04:59:26;99697.22;;;17.97;68.80
35694;BME280;21812;55.536;37.664;2022-07-17T05:01:51;99703.84;;;18.18;69.53
35694;BME280;21812;55.536;37.664;2022-07-17T05:04:17;99700.84;;;18.31;68.84
35694;BME280;21812;55.536;37.664;2022-07-17T05:06:43;99699.38;;;18.52;68.63
35694;BME280;21812;55.536;37.664;2022-07-17T05:09:08;99703.94;;;18.52;67.67
35694;BME280;21812;55.536;37.664;2022-07-17T05:11:34;99703.38;;;18.50;66.89
35694;BME280;21812;55.536;37.664;2022-07-17T05:14:00;99710.72;;;18.38;66.33
35694;BME280;21812;55.536;37.664;2022-07-17T05:16:25;99706.84;;;18.62;68.08
35694;BME280;21812;55.536;37.664;2022-07-17T05:18:51;99708.34;;;18.70;64.42
35694;BME280;21812;55.536;37.664;2022-07-17T05:21:17;99712.53;;;18.78;64.29
35694;BME280;21812;55.536;37.664;2022-07-17T05:23:42;99708.16;;;18.76;66.48
35694;BME280;21812;55.536;37.664;2022-07-17T05:26:08;99693.38;;;18.50;65.13
35694;BME280;21812;55.536;37.664;2022-07-17T05:28:34;99695.84;;;18.52;63.50
35694;BME280;21812;55.536;37.664;2022-07-17T05:31:00;99696.38;;;18.66;66.49
35694;BME280;21812;55.536;37.664;2022-07-17T05:33:25;99689.47;;;18.75;64.77
35694;BME280;21812;55.536;37.664;2022-07-17T05:35:51;99696.34;;;18.94;65.27
35694;BME280;21812;55.536;37.664;2022-07-17T05:38:17;99693.63;;;19.11;62.65
35694;BME280;21812;55.536;37.664;2022-07-17T05:40:42;99697.47;;;18.99;57.04
35694;BME280;21812;55.536;37.664;2022-07-17T05:43:08;99706.41;;;18.82;57.93
35694;BME280;21812;55.536;37.664;2022-07-17T05:45:34;99692.31;;;18.80;63.18
35694;BME280;21812;55.536;37.664;2022-07-17T05:47:59;99683.16;;;18.69;62.62
35694;BME280;21812;55.536;37.664;2022-07-17T05:50:25;99684.63;;;18.77;63.24
35694;BME280;21812;55.536;37.664;2022-07-17T05:52:51;99697.63;;;18.92;64.35
35694;BME280;21812;55.536;37.664;2022-07-17T05:55:16;99681.63;;;19.07;63.87
35694;BME280;21812;55.536;37.664;2022-07-17T05:57:42;99674.75;;;19.17;63.11
35694;BME280;21812;55.536;37.664;2022-07-17T06:00:08;99679.03;;;19.12;62.33
35694;BME280;21812;55.536;37.664;2022-07-17T06:02:40;99666.25;;;19.08;60.33
35694;BME280;21812;55.536;37.664;2022-07-17T06:05:07;99672.28;;;18.98;61.03
35694;BME280;21812;55.536;37.664;2022-07-17T06:07:32;99689.47;;;18.75;58.62
35694;BME280;21812;55.536;37.664;2022-07-17T06:09:58;99686.84;;;18.63;60.11
35694;BME280;21812;55.536;37.664;2022-07-17T06:12:24;99681.75;;;18.50;59.62
35694;BME280;21812;55.536;37.664;2022-07-17T06:14:50;99684.34;;;18.45;60.48
35694;BME280;21812;55.536;37.664;2022-07-17T06:17:15;99676.22;;;18.28;59.23
35694;BME280;21812;55.536;37.664;2022-07-17T06:19:41;99693.97;;;18.24;60.18
35694;BME280;21812;55.536;37.664;2022-07-17T06:22:07;99688.88;;;18.27;63.19
35694;BME280;21812;55.536;37.664;2022-07-17T06:24:33;99676.63;;;18.36;63.78
35694;BME280;21812;55.536;37.664;2022-07-17T06:26:58;99683.72;;;18.54;61.80
35694;BME280;21812;55.536;37.664;2022-07-17T06:29:24;99679.13;;;18.55;59.92
35694;BME280;21812;55.536;37.664;2022-07-17T06:31:51;99686.53;;;18.76;62.93
35694;BME280;21812;55.536;37.664;2022-07-17T06:34:17;99681.25;;;18.82;58.94
35694;BME280;21812;55.536;37.664;2022-07-17T06:36:43;99679.69;;;18.86;60.17
35694;BME280;21812;55.536;37.664;2022-07-17T06:39:08;99674.28;;;18.86;60.67
35694;BME280;21812;55.536;37.664;2022-07-17T06:41:36;99667.88;;;19.09;62.38
35694;BME280;21812;55.536;37.664;2022-07-17T06:44:04;99664.66;;;19.29;61.96
35694;BME280;21812;55.536;37.664;2022-07-17T06:46:30;99668.75;;;19.31;61.33
35694;BME280;21812;55.536;37.664;2022-07-17T06:48:55;99655.22;;;19.31;59.81
35694;BME280;21812;55.536;37.664;2022-07-17T06:51:23;99654.31;;;19.26;57.10
35694;BME280;21812;55.536;37.664;2022-07-17T06:53:49;99654.75;;;19.18;55.50
35694;BME280;21812;55.536;37.664;2022-07-17T06:56:15;99656.00;;;19.10;58.92
35694;BME280;21812;55.536;37.664;2022-07-17T06:58:41;99647.34;;;19.13;58.11
35694;BME280;21812;55.536;37.664;2022-07-17T07:01:06;99654.22;;;19.21;57.59
35694;BME280;21812;55.536;37.664;2022-07-17T07:03:32;99655.84;;;19.39;58.89
35694;BME280;21812;55.536;37.664;2022-07-17T07:05:58;99658.31;;;19.40;57.04
35694;BME280;21812;55.536;37.664;2022-07-17T07:08:24;99657.44;;;19.34;56.27
35694;BME280;21812;55.536;37.664;2022-07-17T07:10:51;99653.09;;;19.17;58.52
35694;BME280;21812;55.536;37.664;2022-07-17T07:13:16;99664.50;;;19.19;58.45
35694;BME280;21812;55.536;37.664;2022-07-17T07:15:42;99666.28;;;19.30;59.34
35694;BME280;21812;55.536;37.664;2022-07-17T07:18:08;99660.03;;;19.46;59.56
35694;BME280;21812;55.536;37.664;2022-07-17T07:20:34;99653.53;;;19.47;56.23
35694;BME280;21812;55.536;37.664;2022-07-17T07:22:59;99653.03;;;19.50;58.95
35694;BME280;21812;55.536;37.664;2022-07-17T07:25:25;99664.31;;;19.64;58.69
35694;BME280;21812;55.536;37.664;2022-07-17T07:27:51;99666.28;;;19.69;58.84
35694;BME280;21812;55.536;37.664;2022-07-17T07:30:17;99666.75;;;19.83;57.60
35694;BME280;21812;55.536;37.664;2022-07-17T07:32:42;99667.94;;;19.92;58.19
35694;BME280;21812;55.536;37.664;2022-07-17T07:35:08;99667.25;;;19.80;52.65
35694;BME280;21812;55.536;37.664;2022-07-17T07:37:35;99665.94;;;19.82;56.25
35694;BME280;21812;55.536;37.664;2022-07-17T07:40:02;99655.44;;;19.69;53.54
35694;BME280;21812;55.536;37.664;2022-07-17T07:42:29;99656.78;;;19.49;52.53
35694;BME280;21812;55.536;37.664;2022-07-17T07:44:55;99658.25;;;19.35;54.06
35694;BME280;21812;55.536;37.664;2022-07-17T07:47:20;99660.38;;;19.33;55.04
35694;BME280;21812;55.536;37.664;2022-07-17T07:49:46;99657.84;;;19.26;55.62
35694;BME280;21812;55.536;37.664;2022-07-17T07:52:12;99667.00;;;19.42;56.01
35694;BME280;21812;55.536;37.664;2022-07-17T07:54:38;99657.31;;;19.46;55.04
35694;BME280;21812;55.536;37.664;2022-07-17T07:57:03;99663.63;;;19.52;53.27
35694;BME280;21812;55.536;37.664;2022-07-17T07:59:29;99669.72;;;19.64;55.62
35694;BME280;21812;55.536;37.664;2022-07-17T08:01:58;99673.31;;;19.70;52.80
35694;BME280;21812;55.536;37.664;2022-07-17T08:04:24;99674.91;;;19.66;53.74
35694;BME280;21812;55.536;37.664;2022-07-17T08:06:49;99689.69;;;19.58;49.91
35694;BME280;21812;55.536;37.664;2022-07-17T08:09:15;99680.25;;;19.61;50.21
35694;BME280;21812;55.536;37.664;2022-07-17T08:11:41;99677.13;;;19.69;53.66
35694;BME280;21812;55.536;37.664;2022-07-17T08:14:06;99688.66;;;19.81;54.37
35694;BME280;21812;55.536;37.664;2022-07-17T08:16:32;99675.66;;;19.78;48.56
35694;BME280;21812;55.536;37.664;2022-07-17T08:18:58;99676.44;;;19.79;49.01
35694;BME280;21812;55.536;37.664;2022-07-17T08:21:23;99678.59;;;19.77;48.76
35694;BME280;21812;55.536;37.664;2022-07-17T08:23:49;99671.41;;;19.87;54.30
35694;BME280;21812;55.536;37.664;2022-07-17T08:26:15;99675.38;;;20.02;52.12
35694;BME280;21812;55.536;37.664;2022-07-17T08:28:40;99672.28;;;19.93;49.83
35694;BME280;21812;55.536;37.664;2022-07-17T08:31:06;99675.81;;;19.94;54.18
35694;BME280;21812;55.536;37.664;2022-07-17T08:33:32;99673.94;;;19.94;52.78
35694;BME280;21812;55.536;37.664;2022-07-17T08:35:57;99678.66;;;20.04;53.97
35694;BME280;21812;55.536;37.664;2022-07-17T08:38:23;99669.75;;;20.08;54.63
35694;BME280;21812;55.536;37.664;2022-07-17T08:40:49;99683.78;;;20.27;52.99
35694;BME280;21812;55.536;37.664;2022-07-17T08:43:17;99683.38;;;20.41;53.55
35694;BME280;21812;55.536;37.664;2022-07-17T08:45:43;99679.69;;;20.52;54.85
35694;BME280;21812;55.536;37.664;2022-07-17T08:48:12;99665.88;;;20.54;54.03
35694;BME280;21812;55.536;37.664;2022-07-17T08:50:39;99681.63;;;20.84;59.02
35694;BME280;21812;55.536;37.664;2022-07-17T08:53:05;99686.56;;;20.92;56.61
35694;BME280;21812;55.536;37.664;2022-07-17T08:55:34;99687.28;;;21.15;58.79
35694;BME280;21812;55.536;37.664;2022-07-17T08:58:03;99696.09;;;21.27;55.47
35694;BME280;21812;55.536;37.664;2022-07-17T09:00:30;99689.66;;;21.43;55.91
35694;BME280;21812;55.536;37.664;2022-07-17T09:03:00;99688.09;;;21.53;55.46
35694;BME280;21812;55.536;37.664;2022-07-17T09:05:34;99672.53;;;21.43;52.37
35694;BME280;21812;55.536;37.664;2022-07-17T09:08:01;99680.03;;;21.68;58.90
35694;BME280;21812;55.536;37.664;2022-07-17T09:10:39;99641.22;;;21.78;58.84
35694;BME280;21812;55.536;37.664;2022-07-17T09:13:30;99672.84;;;21.99;51.85
35694;BME280;21812;55.536;37.664;2022-07-17T09:15:58;99673.41;;;22.12;63.86
35694;BME280;21812;55.536;37.664;2022-07-17T09:18:41;99669.63;;;22.13;52.88
35694;BME280;21812;55.536;37.664;2022-07-17T09:21:07;99678.03;;;22.11;56.36
35694;BME280;21812;55.536;37.664;2022-07-17T09:23:32;99672.34;;;22.18;65.24
35694;BME280;21812;55.536;37.664;2022-07-17T09:26:00;99682.44;;;22.22;63.86
35694;BME280;21812;55.536;37.664;2022-07-17T09:28:25;99685.03;;;21.97;51.23
35694;BME280;21812;55.536;37.664;2022-07-17T09:30:53;99677.44;;;21.99;57.00
35694;BME280;21812;55.536;37.664;2022-07-17T09:33:24;99627.63;;;21.73;60.60
35694;BME280;21812;55.536;37.664;2022-07-17T09:36:08;99687.72;;;21.81;51.97
35694;BME280;21812;55.536;37.664;2022-07-17T09:38:37;99682.78;;;21.73;55.21
35694;BME280;21812;55.536;37.664;2022-07-17T09:41:05;99678.34;;;21.57;49.59
35694;BME280;21812;55.536;37.664;2022-07-17T09:46:14;99629.50;;;21.72;58.22
35694;BME280;21812;55.536;37.664;2022-07-17T09:48:43;99638.59;;;22.14;66.21
35694;BME280;21812;55.536;37.664;2022-07-17T09:51:15;99644.88;;;22.14;50.69
35694;BME280;21812;55.536;37.664;2022-07-17T09:53:44;99641.63;;;22.22;63.71
35694;BME280;21812;55.536;37.664;2022-07-17T09:56:11;99652.56;;;22.48;57.65
35694;BME280;21812;55.536;37.664;2022-07-17T09:58:40;99649.31;;;22.61;57.57
35694;BME280;21812;55.536;37.664;2022-07-17T10:01:08;99661.84;;;22.62;46.70
35694;BME280;21812;55.536;37.664;2022-07-17T10:03:34;99675.44;;;22.73;48.45
35694;BME280;21812;55.536;37.664;2022-07-17T10:06:01;99650.13;;;22.52;45.33
35694;BME280;21812;55.536;37.664;2022-07-17T10:08:27;99668.66;;;22.60;46.04
35694;BME280;21812;55.536;37.664;2022-07-17T10:10:54;99677.63;;;22.55;44.79
35694;BME280;21812;55.536;37.664;2022-07-17T10:13:20;99664.84;;;22.51;45.59
35694;BME280;21812;55.536;37.664;2022-07-17T10:15:46;99675.97;;;22.44;42.49
35694;BME280;21812;55.536;37.664;2022-07-17T10:18:12;99661.81;;;22.52;42.89
35694;BME280;21812;55.536;37.664;2022-07-17T10:20:38;99676.81;;;22.55;42.72
35694;BME280;21812;55.536;37.664;2022-07-17T10:23:16;99676.00;;;22.64;43.76
35694;BME280;21812;55.536;37.664;2022-07-17T10:25:42;99679.78;;;22.63;42.45
35694;BME280;21812;55.536;37.664;2022-07-17T10:28:08;99665.66;;;22.72;44.95
35694;BME280;21812;55.536;37.664;2022-07-17T10:30:33;99662.13;;;22.87;43.91
35694;BME280;21812;55.536;37.664;2022-07-17T10:33:04;99667.56;;;22.97;43.30
35694;BME280;21812;55.536;37.664;2022-07-17T10:35:45;99669.19;;;22.98;43.34
35694;BME280;21812;55.536;37.664;2022-07-17T10:38:12;99683.09;;;23.07;42.03
35694;BME280;21812;55.536;37.664;2022-07-17T10:40:38;99674.63;;;23.18;42.26
35694;BME280;21812;55.536;37.664;2022-07-17T10:43:08;99680.34;;;23.17;41.94
35694;BME280;21812;55.536;37.664;2022-07-17T10:45:35;99667.88;;;23.06;43.41
35694;BME280;21812;55.536;37.664;2022-07-17T10:48:05;99656.41;;;23.14;44.12
35694;BME280;21812;55.536;37.664;2022-07-17T10:50:34;99650.09;;;23.34;44.02
35694;BME280;21812;55.536;37.664;2022-07-17T10:53:10;99619.34;;;23.18;41.62
35694;BME280;21812;55.536;37.664;2022-07-17T10:55:41;99641.94;;;23.18;41.30
35694;BME280;21812;55.536;37.664;2022-07-17T11:00:44;99622.66;;;23.10;42.01
35694;BME280;21812;55.536;37.664;2022-07-17T11:03:20;99619.91;;;23.20;42.49
35694;BME280;21812;55.536;37.664;2022-07-17T11:05:48;99624.53;;;23.14;42.95
35694;BME280;21812;55.536;37.664;2022-07-17T11:08:13;99625.88;;;23.22;44.83
35694;BME280;21812;55.536;37.664;2022-07-17T11:10:40;99634.06;;;23.17;45.21
35694;BME280;21812;55.536;37.664;2022-07-17T11:13:15;99643.88;;;23.18;44.63
35694;BME280;21812;55.536;37.664;2022-07-17T11:15:47;99644.41;;;23.20;45.01
35694;BME280;21812;55.536;37.664;2022-07-17T11:18:18;99611.69;;;23.30;46.13
35694;BME280;21812;55.536;37.664;2022-07-17T11:20:54;99621.75;;;23.40;42.90
35694;BME280;21812;55.536;37.664;2022-07-17T11:23:22;99648.03;;;23.75;41.64
35694;BME280;21812;55.536;37.664;2022-07-17T11:26:00;99606.81;;;23.97;41.87
35694;BME280;21812;55.536;37.664;2022-07-17T11:28:40;99626.38;;;24.54;40.26
35694;BME280;21812;55.536;37.664;2022-07-17T11:31:25;99637.13;;;25.04;39.55
35694;BME280;21812;55.536;37.664;2022-07-17T11:33:57;99636.94;;;25.49;38.72
35694;BME280;21812;55.536;37.664;2022-07-17T11:36:28;99636.59;;;25.31;37.26
35694;BME280;21812;55.536;37.664;2022-07-17T11:38:56;99637.25;;;25.18;38.65
35694;BME280;21812;55.536;37.664;2022-07-17T11:41:42;99630.09;;;25.22;38.30
35694;BME280;21812;55.536;37.664;2022-07-17T11:44:10;99633.34;;;25.00;39.65
35694;BME280;21812;55.536;37.664;2022-07-17T11:46:37;99632.19;;;24.77;40.57
35694;BME280;21812;55.536;37.664;2022-07-17T11:49:03;99632.50;;;25.00;41.33
35694;BME280;21812;55.536;37.664;2022-07-17T11:51:38;99583.31;;;25.05;37.75
35694;BME280;21812;55.536;37.664;2022-07-17T11:54:06;99642.22;;;25.64;38.04
35694;BME280;21812;55.536;37.664;2022-07-17T11:56:35;99640.47;;;26.17;38.23
35694;BME280;21812;55.536;37.664;2022-07-17T11:59:01;99632.66;;;26.81;39.04
35694;BME280;21812;55.536;37.664;2022-07-17T12:01:38;99604.06;;;26.87;36.78
35694;BME280;21812;55.536;37.664;2022-07-17T12:04:07;99626.28;;;26.33;34.68
35694;BME280;21812;55.536;37.664;2022-07-17T12:06:33;99624.00;;;26.22;35.66
35694;BME280;21812;55.536;37.664;2022-07-17T12:08:58;99622.56;;;26.43;38.35
35694;BME280;21812;55.536;37.664;2022-07-17T12:11:24;99621.25;;;26.22;34.75
35694;BME280;21812;55.536;37.664;2022-07-17T12:13:50;99627.47;;;26.08;38.98
35694;BME280;21812;55.536;37.664;2022-07-17T12:21:27;99622.59;;;25.09;37.62
35694;BME280;21812;55.536;37.664;2022-07-17T12:24:00;99599.66;;;24.81;39.01
35694;BME280;21812;55.536;37.664;2022-07-17T12:26:26;99619.28;;;24.83;39.73
35694;BME280;21812;55.536;37.664;2022-07-17T12:28:52;99628.47;;;24.63;37.38
35694;BME280;21812;55.536;37.664;2022-07-17T12:31:17;99631.84;;;24.44;36.75
35694;BME280;21812;55.536;37.664;2022-07-17T12:33:45;99623.19;;;24.37;38.44
35694;BME280;21812;55.536;37.664;2022-07-17T12:36:11;99628.44;;;24.68;41.65
35694;BME280;21812;55.536;37.664;2022-07-17T12:38:37;99630.69;;;24.90;37.34
35694;BME280;21812;55.536;37.664;2022-07-17T12:41:02;99625.94;;;25.30;40.37
35694;BME280;21812;55.536;37.664;2022-07-17T12:43:28;99620.06;;;25.66;42.17
35694;BME280;21812;55.536;37.664;2022-07-17T12:45:54;99614.78;;;25.50;36.59
35694;BME280;21812;55.536;37.664;2022-07-17T12:48:19;99619.72;;;25.24;37.79
35694;BME280;21812;55.536;37.664;2022-07-17T12:50:45;99620.16;;;25.36;42.42
35694;BME280;21812;55.536;37.664;2022-07-17T12:53:11;99620.72;;;25.33;43.34
35694;BME280;21812;55.536;37.664;2022-07-17T12:55:37;99606.91;;;25.20;42.68
35694;BME280;21812;55.536;37.664;2022-07-17T12:58:04;99611.91;;;25.12;41.77
35694;BME280;21812;55.536;37.664;2022-07-17T13:00:30;99604.59;;;25.08;43.04